sensor_id;sensor_type;location;lat;lon;timestamp;pressure;altitude;pressure_sealevel;temperature;humidity
81243;BME280;70716;50.074;14.496;2024-01-15T00:02:08;97292.84;;;-0.61;75.00
81243;BME280;70716;50.074;14.496;2024-01-15T00:04:41;97285.81;;;-0.57;74.96
81243;BME280;70716;50.074;14.496;2024-01-15T00:07:07;97287.13;;;-0.55;74.71
81243;BME280;70716;50.074;14.496;2024-01-15T00:09:33;97282.38;;;-0.58;74.88
81243;BME280;70716;50.074;14.496;2024-01-15T00:11:59;97276.53;;;-0.65;75.37
81243;BME280;70716;50.074;14.496;2024-01-15T00:14:27;97279.78;;;-0.68;75.08
81243;BME280;70716;50.074;14.496;2024-01-15T00:16:52;97269.41;;;-0.75;74.73
81243;BME280;70716;50.074;14.496;2024-01-15T00:19:22;97278.06;;;-0.88;75.68
81243;BME280;70716;50.074;14.496;2024-01-15T00:21:49;97273.69;;;-1.08;75.96
81243;BME280;70716;50.074;14.496;2024-01-15T00:24:14;97261.53;;;-1.24;76.35
81243;BME280;70716;50.074;14.496;2024-01-15T00:26:40;97260.81;;;-1.35;76.90
81243;BME280;70716;50.074;14.496;2024-01-15T00:29:08;97269.41;;;-1.43;77.71
81243;BME280;70716;50.074;14.496;2024-01-15T00:31:35;97272.03;;;-1.33;77.07
81243;BME280;70716;50.074;14.496;2024-01-15T00:34:00;97268.03;;;-1.35;77.01
81243;BME280;70716;50.074;14.496;2024-01-15T00:36:26;97268.06;;;-1.40;77.47
81243;BME280;70716;50.074;14.496;2024-01-15T00:38:51;97262.16;;;-1.37;77.55
81243;BME280;70716;50.074;14.496;2024-01-15T00:41:17;97265.06;;;-1.34;76.97
81243;BME280;70716;50.074;14.496;2024-01-15T00:43:44;97259.47;;;-1.32;77.23
81243;BME280;70716;50.074;14.496;2024-01-15T00:46:10;97252.25;;;-1.31;76.92
81243;BME280;70716;50.074;14.496;2024-01-15T00:48:36;97242.88;;;-1.29;76.69
81243;BME280;70716;50.074;14.496;2024-01-15T00:51:04;97240.72;;;-1.27;76.33
81243;BME280;70716;50.074;14.496;2024-01-15T00:53:30;97236.44;;;-1.28;76.51
81243;BME280;70716;50.074;14.496;2024-01-15T00:55:56;97243.16;;;-1.30;75.95
81243;BME280;70716;50.074;14.496;2024-01-15T00:58:21;97230.53;;;-1.25;76.29
81243;BME280;70716;50.074;14.496;2024-01-15T01:00:48;97234.78;;;-1.19;75.85
81243;BME280;70716;50.074;14.496;2024-01-15T01:03:14;97240.16;;;-1.24;75.80
81243;BME280;70716;50.074;14.496;2024-01-15T01:05:39;97236.94;;;-1.21;76.05
81243;BME280;70716;50.074;14.496;2024-01-15T01:08:05;97219.81;;;-1.20;75.90
81243;BME280;70716;50.074;14.496;2024-01-15T01:10:30;97226.50;;;-1.22;76.13
81243;BME280;70716;50.074;14.496;2024-01-15T01:12:56;97212.88;;;-1.21;75.52
81243;BME280;70716;50.074;14.496;2024-01-15T01:15:21;97218.50;;;-1.22;75.13
81243;BME280;70716;50.074;14.496;2024-01-15T01:17:47;97219.28;;;-1.22;75.00
81243;BME280;70716;50.074;14.496;2024-01-15T01:20:17;97219.00;;;-1.20;75.19
81243;BME280;70716;50.074;14.496;2024-01-15T01:22:43;97214.47;;;-1.20;75.51
81243;BME280;70716;50.074;14.496;2024-01-15T01:25:08;97219.25;;;-1.17;75.34
81243;BME280;70716;50.074;14.496;2024-01-15T01:27:35;97218.72;;;-1.19;75.20
81243;BME280;70716;50.074;14.496;2024-01-15T01:30:01;97213.59;;;-1.15;75.15
81243;BME280;70716;50.074;14.496;2024-01-15T01:32:26;97209.63;;;-1.18;75.03
81243;BME280;70716;50.074;14.496;2024-01-15T01:34:54;97211.72;;;-1.15;74.94
81243;BME280;70716;50.074;14.496;2024-01-15T01:37:20;97209.06;;;-1.15;74.96
81243;BME280;70716;50.074;14.496;2024-01-15T01:39:45;97202.47;;;-1.22;74.56
81243;BME280;70716;50.074;14.496;2024-01-15T01:42:11;97203.25;;;-1.22;74.70
81243;BME280;70716;50.074;14.496;2024-01-15T01:44:37;97192.00;;;-1.19;74.97
81243;BME280;70716;50.074;14.496;2024-01-15T01:47:03;97189.84;;;-1.17;74.38
81243;BME280;70716;50.074;14.496;2024-01-15T01:49:29;97190.56;;;-1.11;73.91
81243;BME280;70716;50.074;14.496;2024-01-15T01:52:00;97196.59;;;-1.24;74.76
81243;BME280;70716;50.074;14.496;2024-01-15T01:54:29;97197.13;;;-1.22;75.08
81243;BME280;70716;50.074;14.496;2024-01-15T01:56:57;97190.16;;;-1.23;74.72
81243;BME280;70716;50.074;14.496;2024-01-15T01:59:25;97190.41;;;-1.20;74.58
81243;BME280;70716;50.074;14.496;2024-01-15T02:01:54;97192.56;;;-1.22;73.99
81243;BME280;70716;50.074;14.496;2024-01-15T02:04:24;97191.72;;;-1.17;74.29
81243;BME280;70716;50.074;14.496;2024-01-15T02:06:50;97185.78;;;-1.14;73.90
81243;BME280;70716;50.074;14.496;2024-01-15T02:09:15;97197.88;;;-1.17;74.11
81243;BME280;70716;50.074;14.496;2024-01-15T02:11:42;97194.88;;;-1.15;74.01
81243;BME280;70716;50.074;14.496;2024-01-15T02:14:10;97205.38;;;-1.19;74.60
81243;BME280;70716;50.074;14.496;2024-01-15T02:16:35;97197.34;;;-1.19;74.42
81243;BME280;70716;50.074;14.496;2024-01-15T02:19:01;97199.16;;;-1.14;74.37
81243;BME280;70716;50.074;14.496;2024-01-15T02:21:26;97194.31;;;-1.12;73.54
81243;BME280;70716;50.074;14.496;2024-01-15T02:23:54;97195.06;;;-1.07;73.05
81243;BME280;70716;50.074;14.496;2024-01-15T02:26:19;97187.09;;;-1.12;74.06
81243;BME280;70716;50.074;14.496;2024-01-15T02:28:47;97189.25;;;-1.14;73.69
81243;BME280;70716;50.074;14.496;2024-01-15T02:31:13;97187.22;;;-1.22;73.69
81243;BME280;70716;50.074;14.496;2024-01-15T02:33:39;97196.06;;;-1.26;74.07
81243;BME280;70716;50.074;14.496;2024-01-15T02:36:05;97193.69;;;-1.28;73.97
81243;BME280;70716;50.074;14.496;2024-01-15T02:38:30;97196.31;;;-1.23;74.18
81243;BME280;70716;50.074;14.496;2024-01-15T02:40:56;97173.56;;;-1.20;73.24
81243;BME280;70716;50.074;14.496;2024-01-15T02:43:21;97168.50;;;-1.22;73.21
81243;BME280;70716;50.074;14.496;2024-01-15T02:45:46;97166.97;;;-1.28;73.45
81243;BME280;70716;50.074;14.496;2024-01-15T02:48:12;97170.94;;;-1.25;73.66
81243;BME280;70716;50.074;14.496;2024-01-15T02:50:37;97163.16;;;-1.22;73.71
81243;BME280;70716;50.074;14.496;2024-01-15T02:53:03;97167.47;;;-1.26;73.43
81243;BME280;70716;50.074;14.496;2024-01-15T02:55:28;97162.13;;;-1.26;73.15
81243;BME280;70716;50.074;14.496;2024-01-15T02:57:57;97169.16;;;-1.35;73.37
81243;BME280;70716;50.074;14.496;2024-01-15T03:00:23;97164.56;;;-1.29;73.57
81243;BME280;70716;50.074;14.496;2024-01-15T03:02:50;97155.78;;;-1.35;73.40
81243;BME280;70716;50.074;14.496;2024-01-15T03:05:16;97156.34;;;-1.38;73.57
81243;BME280;70716;50.074;14.496;2024-01-15T03:07:42;97162.44;;;-1.33;73.69
81243;BME280;70716;50.074;14.496;2024-01-15T03:10:08;97161.66;;;-1.33;74.05
81243;BME280;70716;50.074;14.496;2024-01-15T03:12:33;97152.31;;;-1.36;74.02
81243;BME280;70716;50.074;14.496;2024-01-15T03:14:58;97167.28;;;-1.35;74.01
81243;BME280;70716;50.074;14.496;2024-01-15T03:17:24;97153.06;;;-1.30;73.67
81243;BME280;70716;50.074;14.496;2024-01-15T03:19:50;97145.34;;;-1.31;73.24
81243;BME280;70716;50.074;14.496;2024-01-15T03:22:16;97137.38;;;-1.37;73.40
81243;BME280;70716;50.074;14.496;2024-01-15T03:24:43;97146.19;;;-1.36;73.36
81243;BME280;70716;50.074;14.496;2024-01-15T03:27:08;97123.78;;;-1.40;73.33
81243;BME280;70716;50.074;14.496;2024-01-15T03:29:34;97109.63;;;-1.41;73.14
81243;BME280;70716;50.074;14.496;2024-01-15T03:31:59;97097.34;;;-1.42;72.84
81243;BME280;70716;50.074;14.496;2024-01-15T03:34:28;97104.31;;;-1.46;73.42
81243;BME280;70716;50.074;14.496;2024-01-15T03:36:53;97097.13;;;-1.50;73.21
81243;BME280;70716;50.074;14.496;2024-01-15T03:39:18;97094.22;;;-1.54;73.36
81243;BME280;70716;50.074;14.496;2024-01-15T03:41:44;97090.75;;;-1.54;73.15
81243;BME280;70716;50.074;14.496;2024-01-15T03:44:11;97102.75;;;-1.52;73.04
81243;BME280;70716;50.074;14.496;2024-01-15T03:46:36;97109.19;;;-1.53;72.64
81243;BME280;70716;50.074;14.496;2024-01-15T03:49:02;97113.50;;;-1.57;72.78
81243;BME280;70716;50.074;14.496;2024-01-15T03:51:27;97119.91;;;-1.58;73.12
81243;BME280;70716;50.074;14.496;2024-01-15T03:53:53;97123.38;;;-1.57;73.46
81243;BME280;70716;50.074;14.496;2024-01-15T03:56:18;97141.78;;;-1.56;72.91
81243;BME280;70716;50.074;14.496;2024-01-15T03:58:44;97160.19;;;-1.49;73.09
81243;BME280;70716;50.074;14.496;2024-01-15T04:01:09;97150.53;;;-1.45;72.46
81243;BME280;70716;50.074;14.496;2024-01-15T04:03:35;97149.19;;;-1.43;72.86
81243;BME280;70716;50.074;14.496;2024-01-15T04:06:00;97132.81;;;-1.36;71.72
81243;BME280;70716;50.074;14.496;2024-01-15T04:08:26;97138.72;;;-1.39;72.06
81243;BME280;70716;50.074;14.496;2024-01-15T04:10:51;97145.66;;;-1.38;72.06
81243;BME280;70716;50.074;14.496;2024-01-15T04:13:17;97149.44;;;-1.44;71.98
81243;BME280;70716;50.074;14.496;2024-01-15T04:15:42;97147.03;;;-1.41;72.41
81243;BME280;70716;50.074;14.496;2024-01-15T04:18:08;97138.50;;;-1.43;72.36
81243;BME280;70716;50.074;14.496;2024-01-15T04:20:35;97140.63;;;-1.45;71.47
81243;BME280;70716;50.074;14.496;2024-01-15T04:23:00;97149.72;;;-1.46;72.31
81243;BME280;70716;50.074;14.496;2024-01-15T04:25:25;97157.22;;;-1.48;72.07
81243;BME280;70716;50.074;14.496;2024-01-15T04:27:51;97146.53;;;-1.48;72.35
81243;BME280;70716;50.074;14.496;2024-01-15T04:30:16;97145.19;;;-1.45;72.28
81243;BME280;70716;50.074;14.496;2024-01-15T04:32:45;97143.31;;;-1.45;71.88
81243;BME280;70716;50.074;14.496;2024-01-15T04:35:10;97146.25;;;-1.46;72.04
81243;BME280;70716;50.074;14.496;2024-01-15T04:37:39;97120.09;;;-1.49;72.12
81243;BME280;70716;50.074;14.496;2024-01-15T04:40:05;97112.03;;;-1.44;71.90
81243;BME280;70716;50.074;14.496;2024-01-15T04:42:30;97121.19;;;-1.50;72.32
81243;BME280;70716;50.074;14.496;2024-01-15T04:45:00;97119.59;;;-1.51;72.49
81243;BME280;70716;50.074;14.496;2024-01-15T04:47:25;97127.59;;;-1.51;72.06
81243;BME280;70716;50.074;14.496;2024-01-15T04:49:50;97122.25;;;-1.51;72.19
81243;BME280;70716;50.074;14.496;2024-01-15T04:52:16;97121.47;;;-1.52;72.56
81243;BME280;70716;50.074;14.496;2024-01-15T04:54:44;97132.94;;;-1.51;72.47
81243;BME280;70716;50.074;14.496;2024-01-15T04:57:10;97138.00;;;-1.50;72.52
81243;BME280;70716;50.074;14.496;2024-01-15T04:59:35;97136.19;;;-1.54;72.71
81243;BME280;70716;50.074;14.496;2024-01-15T05:02:00;97139.69;;;-1.59;72.43
81243;BME280;70716;50.074;14.496;2024-01-15T05:04:27;97138.69;;;-1.68;72.99
81243;BME280;70716;50.074;14.496;2024-01-15T05:06:53;97139.47;;;-1.68;72.01
81243;BME280;70716;50.074;14.496;2024-01-15T05:09:19;97121.13;;;-1.74;72.79
81243;BME280;70716;50.074;14.496;2024-01-15T05:11:44;97128.38;;;-1.80;73.23
81243;BME280;70716;50.074;14.496;2024-01-15T05:14:11;97133.75;;;-1.85;73.68
81243;BME280;70716;50.074;14.496;2024-01-15T05:16:49;97137.78;;;-1.87;73.49
81243;BME280;70716;50.074;14.496;2024-01-15T05:19:16;97150.59;;;-1.89;73.68
81243;BME280;70716;50.074;14.496;2024-01-15T05:21:45;97152.19;;;-1.88;73.94
81243;BME280;70716;50.074;14.496;2024-01-15T05:24:10;97162.28;;;-1.80;73.26
81243;BME280;70716;50.074;14.496;2024-01-15T05:26:38;97159.88;;;-1.77;73.17
81243;BME280;70716;50.074;14.496;2024-01-15T05:29:04;97155.59;;;-1.78;73.37
81243;BME280;70716;50.074;14.496;2024-01-15T05:31:29;97166.00;;;-1.76;73.11
81243;BME280;70716;50.074;14.496;2024-01-15T05:33:55;97174.81;;;-1.76;73.64
81243;BME280;70716;50.074;14.496;2024-01-15T05:36:20;97173.75;;;-1.75;73.29
81243;BME280;70716;50.074;14.496;2024-01-15T05:38:45;97171.28;;;-1.71;72.64
81243;BME280;70716;50.074;14.496;2024-01-15T05:41:11;97180.06;;;-1.66;72.95
81243;BME280;70716;50.074;14.496;2024-01-15T05:43:36;97185.69;;;-1.67;72.85
81243;BME280;70716;50.074;14.496;2024-01-15T05:46:02;97178.44;;;-1.61;72.66
81243;BME280;70716;50.074;14.496;2024-01-15T05:48:28;97165.84;;;-1.56;72.35
81243;BME280;70716;50.074;14.496;2024-01-15T05:50:53;97174.41;;;-1.59;72.02
81243;BME280;70716;50.074;14.496;2024-01-15T05:53:18;97177.59;;;-1.57;71.92
81243;BME280;70716;50.074;14.496;2024-01-15T05:55:44;97175.16;;;-1.53;71.95
81243;BME280;70716;50.074;14.496;2024-01-15T05:58:15;97176.78;;;-1.52;71.65
81243;BME280;70716;50.074;14.496;2024-01-15T06:00:40;97174.34;;;-1.49;71.54
81243;BME280;70716;50.074;14.496;2024-01-15T06:03:06;97165.56;;;-1.54;71.26
81243;BME280;70716;50.074;14.496;2024-01-15T06:05:31;97161.84;;;-1.58;71.49
81243;BME280;70716;50.074;14.496;2024-01-15T06:07:57;97162.41;;;-1.61;72.03
81243;BME280;70716;50.074;14.496;2024-01-15T06:10:22;97162.69;;;-1.63;72.14
81243;BME280;70716;50.074;14.496;2024-01-15T06:12:47;97161.38;;;-1.66;71.80
81243;BME280;70716;50.074;14.496;2024-01-15T06:15:13;97151.25;;;-1.69;71.92
81243;BME280;70716;50.074;14.496;2024-01-15T06:17:38;97157.41;;;-1.73;72.31
81243;BME280;70716;50.074;14.496;2024-01-15T06:20:04;97154.84;;;-1.83;71.92
81243;BME280;70716;50.074;14.496;2024-01-15T06:22:33;97157.00;;;-1.85;71.99
81243;BME280;70716;50.074;14.496;2024-01-15T06:24:58;97162.41;;;-1.95;72.93
81243;BME280;70716;50.074;14.496;2024-01-15T06:27:27;97173.91;;;-2.00;72.45
81243;BME280;70716;50.074;14.496;2024-01-15T06:29:53;97165.13;;;-2.06;72.88
81243;BME280;70716;50.074;14.496;2024-01-15T06:32:20;97161.72;;;-2.16;73.47
81243;BME280;70716;50.074;14.496;2024-01-15T06:34:46;97170.03;;;-2.28;73.92
81243;BME280;70716;50.074;14.496;2024-01-15T06:37:12;97175.16;;;-2.31;74.13
81243;BME280;70716;50.074;14.496;2024-01-15T06:39:37;97173.31;;;-2.36;74.57
81243;BME280;70716;50.074;14.496;2024-01-15T06:42:02;97181.31;;;-2.41;74.97
81243;BME280;70716;50.074;14.496;2024-01-15T06:44:28;97190.19;;;-2.56;75.34
81243;BME280;70716;50.074;14.496;2024-01-15T06:46:54;97188.31;;;-2.55;75.72
81243;BME280;70716;50.074;14.496;2024-01-15T06:49:23;97200.56;;;-2.54;75.69
81243;BME280;70716;50.074;14.496;2024-01-15T06:51:48;97204.81;;;-2.48;74.97
81243;BME280;70716;50.074;14.496;2024-01-15T06:54:13;97203.25;;;-2.54;75.33
81243;BME280;70716;50.074;14.496;2024-01-15T06:56:39;97213.13;;;-2.60;75.60
81243;BME280;70716;50.074;14.496;2024-01-15T06:59:05;97205.66;;;-2.58;75.46
81243;BME280;70716;50.074;14.496;2024-01-15T07:01:30;97223.53;;;-2.69;75.88
81243;BME280;70716;50.074;14.496;2024-01-15T07:03:55;97227.81;;;-2.78;76.23
81243;BME280;70716;50.074;14.496;2024-01-15T07:06:23;97223.56;;;-2.79;76.14
81243;BME280;70716;50.074;14.496;2024-01-15T07:08:49;97232.88;;;-2.76;75.96
81243;BME280;70716;50.074;14.496;2024-01-15T07:11:15;97231.56;;;-2.79;76.35
81243;BME280;70716;50.074;14.496;2024-01-15T07:13:40;97237.69;;;-2.78;76.09
81243;BME280;70716;50.074;14.496;2024-01-15T07:16:09;97245.16;;;-2.75;76.00
81243;BME280;70716;50.074;14.496;2024-01-15T07:18:37;97260.88;;;-2.63;76.07
81243;BME280;70716;50.074;14.496;2024-01-15T07:21:02;97251.75;;;-2.42;75.50
81243;BME280;70716;50.074;14.496;2024-01-15T07:23:28;97258.88;;;-2.27;74.74
81243;BME280;70716;50.074;14.496;2024-01-15T07:25:53;97267.63;;;-2.12;74.30
81243;BME280;70716;50.074;14.496;2024-01-15T07:28:19;97275.09;;;-2.04;74.03
81243;BME280;70716;50.074;14.496;2024-01-15T07:30:44;97266.78;;;-1.97;73.73
81243;BME280;70716;50.074;14.496;2024-01-15T07:33:13;97262.25;;;-1.96;74.06
81243;BME280;70716;50.074;14.496;2024-01-15T07:35:38;97266.53;;;-2.01;73.75
81243;BME280;70716;50.074;14.496;2024-01-15T07:38:04;97273.75;;;-2.01;74.10
81243;BME280;70716;50.074;14.496;2024-01-15T07:40:29;97263.03;;;-1.96;73.48
81243;BME280;70716;50.074;14.496;2024-01-15T07:42:55;97263.31;;;-1.97;73.75
81243;BME280;70716;50.074;14.496;2024-01-15T07:45:20;97266.47;;;-1.85;73.56
81243;BME280;70716;50.074;14.496;2024-01-15T07:47:46;97275.97;;;-1.69;73.12
81243;BME280;70716;50.074;14.496;2024-01-15T07:50:11;97266.81;;;-1.53;72.29
81243;BME280;70716;50.074;14.496;2024-01-15T07:52:36;97264.03;;;-1.38;72.00
81243;BME280;70716;50.074;14.496;2024-01-15T07:55:02;97263.19;;;-1.33;71.44
81243;BME280;70716;50.074;14.496;2024-01-15T07:57:31;97252.19;;;-1.26;71.40
81243;BME280;70716;50.074;14.496;2024-01-15T07:59:59;97243.59;;;-1.18;70.53
81243;BME280;70716;50.074;14.496;2024-01-15T08:02:26;97239.78;;;-1.12;69.99
81243;BME280;70716;50.074;14.496;2024-01-15T08:04:52;97244.44;;;-0.94;70.03
81243;BME280;70716;50.074;14.496;2024-01-15T08:07:17;97237.59;;;-0.76;68.55
81243;BME280;70716;50.074;14.496;2024-01-15T08:09:43;97238.97;;;-0.55;68.05
81243;BME280;70716;50.074;14.496;2024-01-15T08:12:08;97235.28;;;-0.35;67.90
81243;BME280;70716;50.074;14.496;2024-01-15T08:14:35;97233.44;;;-0.16;67.40
81243;BME280;70716;50.074;14.496;2024-01-15T08:17:05;97227.81;;;0.05;65.31
81243;BME280;70716;50.074;14.496;2024-01-15T08:19:30;97233.56;;;0.36;65.61
81243;BME280;70716;50.074;14.496;2024-01-15T08:21:56;97239.09;;;0.44;64.40
81243;BME280;70716;50.074;14.496;2024-01-15T08:24:22;97244.88;;;0.32;64.80
81243;BME280;70716;50.074;14.496;2024-01-15T08:26:47;97234.66;;;0.35;64.75
81243;BME280;70716;50.074;14.496;2024-01-15T08:29:16;97233.56;;;0.36;64.93
81243;BME280;70716;50.074;14.496;2024-01-15T08:31:46;97227.53;;;0.06;65.08
81243;BME280;70716;50.074;14.496;2024-01-15T08:34:12;97218.47;;;0.02;66.08
81243;BME280;70716;50.074;14.496;2024-01-15T08:36:37;97224.13;;;0.00;65.42
81243;BME280;70716;50.074;14.496;2024-01-15T08:39:02;97222.34;;;0.15;65.62
81243;BME280;70716;50.074;14.496;2024-01-15T08:41:31;97217.63;;;-0.12;65.79
81243;BME280;70716;50.074;14.496;2024-01-15T08:43:56;97219.56;;;-0.18;65.09
81243;BME280;70716;50.074;14.496;2024-01-15T08:46:21;97195.63;;;-0.09;65.55
81243;BME280;70716;50.074;14.496;2024-01-15T08:48:47;97204.16;;;-0.07;65.54
81243;BME280;70716;50.074;14.496;2024-01-15T08:51:12;97200.00;;;-0.18;64.98
81243;BME280;70716;50.074;14.496;2024-01-15T08:53:37;97195.34;;;-0.08;65.17
81243;BME280;70716;50.074;14.496;2024-01-15T08:56:04;97196.13;;;-0.07;64.76
81243;BME280;70716;50.074;14.496;2024-01-15T08:58:31;97207.94;;;0.11;65.29
81243;BME280;70716;50.074;14.496;2024-01-15T09:00:56;97210.47;;;0.21;66.83
81243;BME280;70716;50.074;14.496;2024-01-15T09:03:21;97201.41;;;0.17;65.27
81243;BME280;70716;50.074;14.496;2024-01-15T09:05:50;97215.91;;;0.35;65.23
81243;BME280;70716;50.074;14.496;2024-01-15T09:08:16;97220.03;;;0.27;63.72
81243;BME280;70716;50.074;14.496;2024-01-15T09:10:41;97215.81;;;0.21;64.22
81243;BME280;70716;50.074;14.496;2024-01-15T09:13:06;97233.22;;;0.23;63.75
81243;BME280;70716;50.074;14.496;2024-01-15T09:15:32;97229.47;;;0.00;64.86
81243;BME280;70716;50.074;14.496;2024-01-15T09:17:57;97219.44;;;0.11;63.89
81243;BME280;70716;50.074;14.496;2024-01-15T09:20:25;97227.19;;;0.13;64.14
81243;BME280;70716;50.074;14.496;2024-01-15T09:22:52;97234.28;;;0.22;63.53
81243;BME280;70716;50.074;14.496;2024-01-15T09:25:21;97224.59;;;0.26;63.41
81243;BME280;70716;50.074;14.496;2024-01-15T09:27:46;97220.47;;;0.34;63.24
81243;BME280;70716;50.074;14.496;2024-01-15T09:30:12;97221.19;;;0.40;62.96
81243;BME280;70716;50.074;14.496;2024-01-15T09:32:38;97217.44;;;0.41;62.75
81243;BME280;70716;50.074;14.496;2024-01-15T09:35:03;97216.78;;;0.30;62.64
81243;BME280;70716;50.074;14.496;2024-01-15T09:37:29;97215.09;;;0.34;63.05
81243;BME280;70716;50.074;14.496;2024-01-15T09:39:54;97212.56;;;0.24;63.79
81243;BME280;70716;50.074;14.496;2024-01-15T09:42:21;97212.84;;;0.22;63.59
81243;BME280;70716;50.074;14.496;2024-01-15T09:44:48;97208.38;;;0.18;63.15
81243;BME280;70716;50.074;14.496;2024-01-15T09:47:14;97200.91;;;0.15;62.73
81243;BME280;70716;50.074;14.496;2024-01-15T09:49:44;97195.03;;;0.13;63.19
81243;BME280;70716;50.074;14.496;2024-01-15T09:52:12;97193.09;;;0.18;63.51
81243;BME280;70716;50.074;14.496;2024-01-15T09:54:38;97189.41;;;0.14;63.12
81243;BME280;70716;50.074;14.496;2024-01-15T09:57:06;97180.06;;;0.12;63.24
81243;BME280;70716;50.074;14.496;2024-01-15T09:59:32;97184.53;;;0.16;62.91
81243;BME280;70716;50.074;14.496;2024-01-15T10:01:58;97196.50;;;0.24;62.64
81243;BME280;70716;50.074;14.496;2024-01-15T10:06:37;97179.03;;;0.26;62.21
81243;BME280;70716;50.074;14.496;2024-01-15T10:09:04;97176.44;;;0.21;62.33
81243;BME280;70716;50.074;14.496;2024-01-15T10:11:30;97179.03;;;0.26;62.62
81243;BME280;70716;50.074;14.496;2024-01-15T10:13:59;97176.72;;;0.20;62.86
81243;BME280;70716;50.074;14.496;2024-01-15T10:16:25;97160.78;;;0.28;62.88
81243;BME280;70716;50.074;14.496;2024-01-15T10:18:51;97158.63;;;0.30;62.40
81243;BME280;70716;50.074;14.496;2024-01-15T10:21:17;97157.25;;;0.33;62.37
81243;BME280;70716;50.074;14.496;2024-01-15T10:23:42;97158.25;;;0.18;62.32
81243;BME280;70716;50.074;14.496;2024-01-15T10:26:10;97150.53;;;0.17;62.11
81243;BME280;70716;50.074;14.496;2024-01-15T10:28:37;97138.50;;;0.14;63.04
81243;BME280;70716;50.074;14.496;2024-01-15T10:31:02;97128.00;;;0.18;63.25
81243;BME280;70716;50.074;14.496;2024-01-15T10:33:31;97139.38;;;0.28;62.77
81243;BME280;70716;50.074;14.496;2024-01-15T10:36:00;97123.72;;;0.36;63.57
81243;BME280;70716;50.074;14.496;2024-01-15T10:38:26;97138.41;;;0.38;63.07
81243;BME280;70716;50.074;14.496;2024-01-15T10:40:54;97121.97;;;0.45;62.77
81243;BME280;70716;50.074;14.496;2024-01-15T10:43:21;97122.09;;;0.53;61.42
81243;BME280;70716;50.074;14.496;2024-01-15T10:45:49;97126.88;;;0.56;61.32
81243;BME280;70716;50.074;14.496;2024-01-15T10:48:21;97125.88;;;0.52;61.53
81243;BME280;70716;50.074;14.496;2024-01-15T10:50:47;97123.78;;;0.63;61.34
81243;BME280;70716;50.074;14.496;2024-01-15T10:53:15;97133.63;;;0.68;61.61
81243;BME280;70716;50.074;14.496;2024-01-15T10:55:42;97126.66;;;0.53;61.72
81243;BME280;70716;50.074;14.496;2024-01-15T10:58:08;97132.81;;;0.53;61.53
81243;BME280;70716;50.074;14.496;2024-01-15T11:00:36;97130.81;;;0.59;61.58
81243;BME280;70716;50.074;14.496;2024-01-15T11:03:05;97126.47;;;0.63;60.61
81243;BME280;70716;50.074;14.496;2024-01-15T11:05:38;97136.22;;;0.73;60.97
81243;BME280;70716;50.074;14.496;2024-01-15T11:08:07;97129.47;;;0.75;61.37
81243;BME280;70716;50.074;14.496;2024-01-15T11:13:09;97132.66;;;0.77;61.32
81243;BME280;70716;50.074;14.496;2024-01-15T11:15:57;97134.53;;;0.77;60.31
81243;BME280;70716;50.074;14.496;2024-01-15T11:18:23;97129.00;;;0.87;60.83
81243;BME280;70716;50.074;14.496;2024-01-15T11:23:44;97135.50;;;0.99;60.58
81243;BME280;70716;50.074;14.496;2024-01-15T11:26:45;97132.81;;;0.99;59.83
81243;BME280;70716;50.074;14.496;2024-01-15T11:29:35;97147.13;;;1.09;60.34
81243;BME280;70716;50.074;14.496;2024-01-15T11:32:02;97137.59;;;1.03;60.17
81243;BME280;70716;50.074;14.496;2024-01-15T11:34:52;97145.84;;;1.06;60.38
81243;BME280;70716;50.074;14.496;2024-01-15T11:37:19;97139.38;;;1.07;60.39
81243;BME280;70716;50.074;14.496;2024-01-15T11:39:45;97124.50;;;1.15;60.02
81243;BME280;70716;50.074;14.496;2024-01-15T11:42:12;97129.34;;;1.13;60.00
81243;BME280;70716;50.074;14.496;2024-01-15T11:44:38;97127.47;;;1.13;59.76
81243;BME280;70716;50.074;14.496;2024-01-15T11:47:10;97126.28;;;1.06;59.46
81243;BME280;70716;50.074;14.496;2024-01-15T11:52:23;97124.38;;;1.06;60.65
81243;BME280;70716;50.074;14.496;2024-01-15T11:55:10;97120.09;;;0.91;61.18
81243;BME280;70716;50.074;14.496;2024-01-15T12:00:05;97118.91;;;0.97;60.30
81243;BME280;70716;50.074;14.496;2024-01-15T12:02:32;97119.19;;;0.96;60.74
81243;BME280;70716;50.074;14.496;2024-01-15T12:05:01;97121.38;;;0.94;61.36
81243;BME280;70716;50.074;14.496;2024-01-15T12:07:31;97100.41;;;0.82;61.23
81243;BME280;70716;50.074;14.496;2024-01-15T12:09:59;97124.81;;;0.81;61.01
81243;BME280;70716;50.074;14.496;2024-01-15T12:12:33;97123.78;;;0.63;61.86
81243;BME280;70716;50.074;14.496;2024-01-15T12:15:03;97120.50;;;0.52;61.66
81243;BME280;70716;50.074;14.496;2024-01-15T12:17:29;97117.09;;;0.47;62.47
81243;BME280;70716;50.074;14.496;2024-01-15T12:19:54;97103.06;;;0.36;62.55
81243;BME280;70716;50.074;14.496;2024-01-15T12:22:21;97100.19;;;0.32;62.53
81243;BME280;70716;50.074;14.496;2024-01-15T12:24:46;97099.03;;;0.20;62.68
81243;BME280;70716;50.074;14.496;2024-01-15T12:27:12;97107.44;;;0.13;63.62
81243;BME280;70716;50.074;14.496;2024-01-15T12:29:38;97111.22;;;0.12;63.34
81243;BME280;70716;50.074;14.496;2024-01-15T12:32:05;97113.31;;;0.15;64.29
81243;BME280;70716;50.074;14.496;2024-01-15T12:34:30;97121.34;;;0.15;64.05
81243;BME280;70716;50.074;14.496;2024-01-15T12:37:00;97111.00;;;0.09;64.30
81243;BME280;70716;50.074;14.496;2024-01-15T12:39:25;97112.44;;;0.01;64.14
81243;BME280;70716;50.074;14.496;2024-01-15T12:41:51;97113.34;;;-0.04;64.07
81243;BME280;70716;50.074;14.496;2024-01-15T12:44:18;97110.81;;;-0.14;64.87
81243;BME280;70716;50.074;14.496;2024-01-15T12:46:43;97105.81;;;-0.02;64.52
81243;BME280;70716;50.074;14.496;2024-01-15T12:49:10;97111.88;;;0.04;64.07
81243;BME280;70716;50.074;14.496;2024-01-15T12:51:35;97117.44;;;0.08;64.20
81243;BME280;70716;50.074;14.496;2024-01-15T12:54:00;97112.88;;;0.08;63.39
81243;BME280;70716;50.074;14.496;2024-01-15T12:56:26;97117.38;;;0.13;63.56
81243;BME280;70716;50.074;14.496;2024-01-15T12:58:54;97116.84;;;0.11;63.29
81243;BME280;70716;50.074;14.496;2024-01-15T13:01:20;97113.09;;;0.12;63.37
81243;BME280;70716;50.074;14.496;2024-01-15T13:03:46;97123.50;;;0.13;63.31